Time;durP1;ratioP1;P1;durP2;ratioP2;P2;SDS_P1;SDS_P2;PMS_P1;PMS_P2;Temp;Humidity;BMP_temperature;BMP_pressure;BME280_temperature;BME280_humidity;BME280_pressure;Samples;Min_cycle;Max_cycle;Signal;HPM_P1;HPM_P2
2024/03/28 00:01:54;;;;;;;0.28;0.28;;;;;;;;;;5020625;28;20057;-80
2024/03/28 00:04:20;;;;;;;0.75;0.47;;;;;;;;;;5020729;28;20062;-80
2024/03/28 00:06:47;;;;;;;1.65;0.40;;;;;;;;;;5004230;28;20053;-80
2024/03/28 00:09:13;;;;;;;0.22;0.22;;;;;;;;;;5019538;28;20056;-79
2024/03/28 00:11:39;;;;;;;0.60;0.60;;;;;;;;;;5004253;28;20097;-81
2024/03/28 00:14:05;;;;;;;0.50;0.50;;;;;;;;;;5021356;28;20046;-80
2024/03/28 00:16:32;;;;;;;0.45;0.45;;;;;;;;;;5003087;28;20065;-79
2024/03/28 00:18:58;;;;;;;0.60;0.60;;;;;;;;;;5002812;28;20057;-84
2024/03/28 00:21:24;;;;;;;0.20;0.20;;;;;;;;;;5023766;28;20064;-81
2024/03/28 00:23:50;;;;;;;0.30;0.30;;;;;;;;;;5023815;28;20053;-81
2024/03/28 00:26:17;;;;;;;0.73;0.20;;;;;;;;;;5007659;28;20054;-81
2024/03/28 00:28:43;;;;;;;0.80;0.10;;;;;;;;;;5027281;28;20496;-80
2024/03/28 00:31:10;;;;;;;0.13;0.13;;;;;;;;;;5010470;28;20061;-82
2024/03/28 00:33:36;;;;;;;0.20;0.20;;;;;;;;;;5021118;28;20053;-82
2024/03/28 00:36:02;;;;;;;0.20;0.20;;;;;;;;;;5005371;28;20065;-80
2024/03/28 00:38:29;;;;;;;0.10;0.10;;;;;;;;;;5021722;28;20058;-80
2024/03/28 00:40:55;;;;;;;0.17;0.17;;;;;;;;;;5020777;28;20054;-80
2024/03/28 00:43:22;;;;;;;0.20;0.20;;;;;;;;;;5004324;28;20058;-80
2024/03/28 00:45:49;;;;;;;0.10;0.10;;;;;;;;;;5003047;28;20046;-80
2024/03/28 00:48:16;;;;;;;1.55;0.10;;;;;;;;;;5021450;28;20045;-82
2024/03/28 00:50:43;;;;;;;0.43;0.43;;;;;;;;;;5020011;28;20497;-80
2024/03/28 00:53:09;;;;;;;0.95;0.20;;;;;;;;;;5021573;28;20049;-79
2024/03/28 00:55:35;;;;;;;0.20;0.20;;;;;;;;;;5020701;28;20053;-82
2024/03/28 00:58:01;;;;;;;0.10;0.10;;;;;;;;;;5019323;28;20527;-79
2024/03/28 01:00:27;;;;;;;0.10;0.10;;;;;;;;;;5003519;28;20057;-80
2024/03/28 01:02:54;;;;;;;0.00;0.00;;;;;;;;;;5018088;28;20053;-79
2024/03/28 01:05:20;;;;;;;1.65;0.10;;;;;;;;;;5018584;28;20053;-81
2024/03/28 01:07:46;;;;;;;0.25;0.10;;;;;;;;;;5024622;28;20100;-78
2024/03/28 01:10:12;;;;;;;0.00;0.00;;;;;;;;;;5002813;28;20535;-80
2024/03/28 01:12:39;;;;;;;0.57;0.13;;;;;;;;;;5022774;28;20050;-79
2024/03/28 01:15:05;;;;;;;0.85;0.10;;;;;;;;;;5015972;28;20531;-82
2024/03/28 01:17:32;;;;;;;0.00;0.00;;;;;;;;;;5003118;28;20066;-80
2024/03/28 01:19:58;;;;;;;0.10;0.10;;;;;;;;;;5021291;28;20064;-82
2024/03/28 01:22:24;;;;;;;0.10;0.10;;;;;;;;;;5020206;28;20509;-79
2024/03/28 01:24:50;;;;;;;1.95;0.08;;;;;;;;;;5003799;28;20054;-79
2024/03/28 01:27:17;;;;;;;0.00;0.00;;;;;;;;;;5011606;28;20046;-81
2024/03/28 01:29:43;;;;;;;0.00;0.00;;;;;;;;;;5003563;28;20061;-80
2024/03/28 01:32:09;;;;;;;0.52;0.00;;;;;;;;;;5020061;28;20050;-78
2024/03/28 01:34:35;;;;;;;1.25;0.20;;;;;;;;;;5003592;28;20065;-79
2024/03/28 01:37:01;;;;;;;0.38;0.10;;;;;;;;;;5019788;28;20049;-79
2024/03/28 01:39:28;;;;;;;1.00;0.10;;;;;;;;;;5019975;28;20431;-81
2024/03/28 01:41:54;;;;;;;0.08;0.08;;;;;;;;;;5013327;28;20058;-81
2024/03/28 01:44:21;;;;;;;0.00;0.00;;;;;;;;;;5021516;28;20057;-80
2024/03/28 01:46:48;;;;;;;0.00;0.00;;;;;;;;;;5006011;28;20532;-82
2024/03/28 01:49:14;;;;;;;0.00;0.00;;;;;;;;;;5022682;28;20049;-80
2024/03/28 01:51:42;;;;;;;0.00;0.00;;;;;;;;;;5007721;28;20049;-80
2024/03/28 01:54:10;;;;;;;0.00;0.00;;;;;;;;;;5032825;28;20042;-81
2024/03/28 01:56:36;;;;;;;0.00;0.00;;;;;;;;;;5006539;28;20064;-80
2024/03/28 01:59:02;;;;;;;0.00;0.00;;;;;;;;;;5006325;28;20066;-80
2024/03/28 02:01:29;;;;;;;0.20;0.10;;;;;;;;;;5005887;28;20085;-79
2024/03/28 02:03:56;;;;;;;0.05;0.05;;;;;;;;;;5007206;28;20062;-80
2024/03/28 02:06:22;;;;;;;0.63;0.10;;;;;;;;;;5021558;28;20053;-80
2024/03/28 02:08:49;;;;;;;0.10;0.10;;;;;;;;;;5022933;28;20056;-80
2024/03/28 02:11:17;;;;;;;0.00;0.00;;;;;;;;;;5007381;28;20050;-80
2024/03/28 02:13:43;;;;;;;0.10;0.10;;;;;;;;;;5007501;28;20054;-78
2024/03/28 02:16:09;;;;;;;1.02;0.10;;;;;;;;;;5022743;28;20058;-80
2024/03/28 02:18:36;;;;;;;0.35;0.00;;;;;;;;;;5007362;28;20492;-80
2024/03/28 02:21:02;;;;;;;0.10;0.10;;;;;;;;;;5023861;28;20239;-80
2024/03/28 02:23:29;;;;;;;0.00;0.00;;;;;;;;;;5004779;28;20054;-80
2024/03/28 02:25:55;;;;;;;0.10;0.10;;;;;;;;;;5005857;28;20049;-80
2024/03/28 02:28:21;;;;;;;0.35;0.10;;;;;;;;;;5024192;28;20049;-80
2024/03/28 02:30:47;;;;;;;0.10;0.10;;;;;;;;;;5024896;28;20069;-80
2024/03/28 02:33:13;;;;;;;0.22;0.05;;;;;;;;;;5025525;28;20535;-81
2024/03/28 02:35:40;;;;;;;1.08;0.10;;;;;;;;;;5009165;28;20057;-80
2024/03/28 02:38:06;;;;;;;0.10;0.10;;;;;;;;;;5006739;28;20424;-81
2024/03/28 02:40:32;;;;;;;0.03;0.03;;;;;;;;;;5003728;28;20185;-80
2024/03/28 02:42:58;;;;;;;0.10;0.10;;;;;;;;;;5004031;28;20479;-80
2024/03/28 02:45:25;;;;;;;0.10;0.00;;;;;;;;;;5020073;28;20053;-81
2024/03/28 02:47:51;;;;;;;0.13;0.13;;;;;;;;;;5008197;28;20112;-81
2024/03/28 02:50:17;;;;;;;0.00;0.00;;;;;;;;;;5001422;28;20057;-81
2024/03/28 02:52:43;;;;;;;0.22;0.22;;;;;;;;;;5009216;28;20057;-81
2024/03/28 02:55:10;;;;;;;0.57;0.57;;;;;;;;;;5000723;28;20108;-81
2024/03/28 02:57:36;;;;;;;0.43;0.30;;;;;;;;;;5017178;28;20050;-80
2024/03/28 03:00:03;;;;;;;0.20;0.20;;;;;;;;;;5000867;28;20062;-81
2024/03/28 03:02:30;;;;;;;1.20;0.17;;;;;;;;;;5003243;28;20081;-81
2024/03/28 03:04:56;;;;;;;0.13;0.13;;;;;;;;;;5004413;28;20058;-81
2024/03/28 03:07:22;;;;;;;0.25;0.10;;;;;;;;;;5018831;28;20049;-80
2024/03/28 03:09:48;;;;;;;0.10;0.10;;;;;;;;;;5006436;28;20054;-80
2024/03/28 03:12:15;;;;;;;0.20;0.10;;;;;;;;;;5022585;28;20053;-81
2024/03/28 03:14:41;;;;;;;0.10;0.10;;;;;;;;;;5005753;28;20500;-81
2024/03/28 03:17:09;;;;;;;0.28;0.28;;;;;;;;;;5005203;28;20080;-81
2024/03/28 03:19:36;;;;;;;0.30;0.30;;;;;;;;;;5005169;28;20057;-81
2024/03/28 03:22:05;;;;;;;0.10;0.10;;;;;;;;;;5021462;28;20058;-81
2024/03/28 03:24:34;;;;;;;1.45;0.10;;;;;;;;;;5023190;28;20068;-81
2024/03/28 03:27:04;;;;;;;0.20;0.20;;;;;;;;;;5006026;28;20046;-81
2024/03/28 03:35:01;;;;;;;1.17;1.00;;;;;;;;;;5020033;28;20046;-80
2024/03/28 03:37:28;;;;;;;0.68;0.68;;;;;;;;;;5020306;28;20076;-81
2024/03/28 03:39:54;;;;;;;0.60;0.50;;;;;;;;;;5021407;28;20053;-81
2024/03/28 03:42:21;;;;;;;0.80;0.50;;;;;;;;;;5003311;28;20107;-81
2024/03/28 03:44:47;;;;;;;0.85;0.73;;;;;;;;;;5003458;28;20108;-81
2024/03/28 03:47:13;;;;;;;0.50;0.50;;;;;;;;;;5019967;28;20416;-81
2024/03/28 03:49:46;;;;;;;0.90;0.90;;;;;;;;;;5004207;28;20050;-81
2024/03/28 03:52:14;;;;;;;1.75;1.65;;;;;;;;;;5003423;28;20556;-81
2024/03/28 03:54:40;;;;;;;1.58;1.58;;;;;;;;;;5002520;28;20053;-81
2024/03/28 03:57:07;;;;;;;1.60;1.60;;;;;;;;;;5004547;28;20050;-81
2024/03/28 03:59:33;;;;;;;3.80;3.45;;;;;;;;;;5003093;28;20058;-81
2024/03/28 04:02:00;;;;;;;2.60;2.40;;;;;;;;;;5002039;28;20057;-81
2024/03/28 04:04:26;;;;;;;1.10;1.10;;;;;;;;;;5001893;28;20060;-81
2024/03/28 04:06:52;;;;;;;1.50;1.50;;;;;;;;;;5000476;28;20088;-81
2024/03/28 04:09:19;;;;;;;2.60;2.40;;;;;;;;;;5017123;28;20042;-81
2024/03/28 04:11:48;;;;;;;1.40;1.30;;;;;;;;;;5003704;28;20050;-81
2024/03/28 04:14:15;;;;;;;1.30;1.30;;;;;;;;;;5000542;28;20057;-81
2024/03/28 04:16:41;;;;;;;1.92;1.60;;;;;;;;;;5008156;28;20061;-81
2024/03/28 04:19:08;;;;;;;1.27;1.20;;;;;;;;;;4999311;28;20061;-81
2024/03/28 04:21:34;;;;;;;0.90;0.90;;;;;;;;;;5017358;28;20512;-81
2024/03/28 04:24:01;;;;;;;1.02;1.02;;;;;;;;;;5018901;28;20058;-82
2024/03/28 04:26:27;;;;;;;0.82;0.82;;;;;;;;;;5018208;28;20504;-81
2024/03/28 04:28:54;;;;;;;0.95;0.80;;;;;;;;;;5001501;28;20050;-82
2024/03/28 04:31:21;;;;;;;1.15;1.13;;;;;;;;;;5018180;28;20527;-81
2024/03/28 04:33:48;;;;;;;1.25;1.20;;;;;;;;;;5015869;28;20049;-81
2024/03/28 04:36:14;;;;;;;1.33;1.33;;;;;;;;;;4999079;28;20058;-81
2024/03/28 04:38:41;;;;;;;1.35;1.33;;;;;;;;;;5001101;28;20438;-81
2024/03/28 04:41:08;;;;;;;1.55;1.45;;;;;;;;;;5003240;28;20065;-81
2024/03/28 04:43:35;;;;;;;1.75;1.65;;;;;;;;;;5018526;28;20433;-81
2024/03/28 04:46:02;;;;;;;1.85;1.75;;;;;;;;;;4999736;28;20100;-82
2024/03/28 04:48:28;;;;;;;1.70;1.60;;;;;;;;;;5013968;28;20108;-82
2024/03/28 04:50:54;;;;;;;2.03;1.92;;;;;;;;;;5009498;28;20054;-82
2024/03/28 04:53:20;;;;;;;3.50;3.30;;;;;;;;;;5003434;28;20077;-81
2024/03/28 04:55:47;;;;;;;3.45;3.20;;;;;;;;;;5003220;28;20527;-82
2024/03/28 04:58:13;;;;;;;3.80;3.50;;;;;;;;;;5002877;28;20050;-81
2024/03/28 05:00:39;;;;;;;5.38;4.88;;;;;;;;;;5002996;28;20137;-82
2024/03/28 05:03:05;;;;;;;4.65;3.95;;;;;;;;;;5019262;28;20058;-81
2024/03/28 05:05:35;;;;;;;4.55;4.15;;;;;;;;;;5018477;28;20091;-81
2024/03/28 05:08:02;;;;;;;4.43;3.95;;;;;;;;;;5000807;28;20049;-81
2024/03/28 05:10:28;;;;;;;5.53;4.32;;;;;;;;;;5017813;28;20053;-82
2024/03/28 05:12:54;;;;;;;5.25;4.78;;;;;;;;;;5000072;28;20085;-82
2024/03/28 05:15:20;;;;;;;5.45;4.95;;;;;;;;;;5016494;28;20066;-81
2024/03/28 05:17:47;;;;;;;6.07;5.57;;;;;;;;;;5000853;28;20045;-81
2024/03/28 05:20:13;;;;;;;5.55;4.95;;;;;;;;;;5002988;28;20054;-81
2024/03/28 05:22:40;;;;;;;5.85;5.28;;;;;;;;;;5020457;28;20112;-82
2024/03/28 05:25:06;;;;;;;5.80;5.30;;;;;;;;;;5003724;28;20124;-82
2024/03/28 05:27:35;;;;;;;5.82;4.97;;;;;;;;;;5002453;28;20049;-82
2024/03/28 05:30:02;;;;;;;6.50;5.22;;;;;;;;;;5002170;28;20057;-81
2024/03/28 05:32:29;;;;;;;5.88;5.38;;;;;;;;;;5026230;28;20420;-81
2024/03/28 05:34:55;;;;;;;18.15;12.00;;;;;;;;;;5026121;28;20054;-81
2024/03/28 05:37:21;;;;;;;18.65;12.38;;;;;;;;;;5025683;28;20096;-81
2024/03/28 05:39:48;;;;;;;40.90;21.25;;;;;;;;;;5000866;28;20049;-81
2024/03/28 05:42:14;;;;;;;7.82;6.47;;;;;;;;;;4999999;28;20500;-82
2024/03/28 05:44:40;;;;;;;6.07;5.47;;;;;;;;;;5000526;28;20559;-82
2024/03/28 05:47:06;;;;;;;5.05;4.57;;;;;;;;;;5016883;28;20049;-82
2024/03/28 05:49:33;;;;;;;5.60;5.10;;;;;;;;;;5000378;28;20058;-82
2024/03/28 05:51:59;;;;;;;4.40;4.10;;;;;;;;;;4999896;28;20463;-81
2024/03/28 05:54:25;;;;;;;6.10;5.55;;;;;;;;;;5017679;28;20050;-81
2024/03/28 05:56:51;;;;;;;5.25;4.13;;;;;;;;;;5006885;28;20057;-82
2024/03/28 05:59:18;;;;;;;4.68;4.03;;;;;;;;;;5008183;28;20053;-82
2024/03/28 06:01:44;;;;;;;3.90;3.55;;;;;;;;;;5012633;28;20398;-81
2024/03/28 06:04:10;;;;;;;4.50;3.88;;;;;;;;;;4996099;28;20112;-81
2024/03/28 06:06:36;;;;;;;6.50;4.10;;;;;;;;;;4999050;28;20049;-81
2024/03/28 06:09:03;;;;;;;3.72;3.42;;;;;;;;;;5002457;28;20058;-81
2024/03/28 06:11:30;;;;;;;3.72;3.38;;;;;;;;;;5013246;28;20046;-82
2024/03/28 06:14:06;;;;;;;4.22;3.92;;;;;;;;;;4996762;28;20100;-81
2024/03/28 06:16:32;;;;;;;3.70;3.35;;;;;;;;;;4997481;28;20515;-81
2024/03/28 06:18:58;;;;;;;4.03;3.10;;;;;;;;;;5012716;28;20061;-81
2024/03/28 06:21:25;;;;;;;3.45;3.25;;;;;;;;;;4996131;28;20504;-81
2024/03/28 06:23:51;;;;;;;3.53;3.33;;;;;;;;;;5014231;28;20050;-82
2024/03/28 06:26:17;;;;;;;3.80;3.50;;;;;;;;;;5003069;28;20057;-83
2024/03/28 06:28:44;;;;;;;3.58;3.35;;;;;;;;;;5008979;28;20061;-82
2024/03/28 06:31:10;;;;;;;3.38;3.17;;;;;;;;;;5018357;28;20065;-82
2024/03/28 06:33:36;;;;;;;5.35;3.47;;;;;;;;;;5001020;28;20109;-82
2024/03/28 06:36:04;;;;;;;4.28;3.97;;;;;;;;;;5000437;28;20057;-83
2024/03/28 06:38:31;;;;;;;3.70;3.45;;;;;;;;;;5002148;28;20050;-82
2024/03/28 06:41:01;;;;;;;3.70;3.50;;;;;;;;;;5021669;28;20061;-81
2024/03/28 06:43:27;;;;;;;4.18;3.80;;;;;;;;;;5001445;28;20504;-82
2024/03/28 06:45:53;;;;;;;3.80;3.50;;;;;;;;;;5008335;28;20058;-82
2024/03/28 06:48:19;;;;;;;3.13;3.03;;;;;;;;;;5003097;28;20444;-82
2024/03/28 06:50:45;;;;;;;3.95;3.65;;;;;;;;;;5023489;28;20045;-81
2024/03/28 06:53:12;;;;;;;3.88;3.53;;;;;;;;;;5005620;28;20057;-82
2024/03/28 06:55:38;;;;;;;3.38;3.13;;;;;;;;;;5009416;28;20046;-82
2024/03/28 06:58:04;;;;;;;3.80;3.45;;;;;;;;;;5017348;28;20049;-81
2024/03/28 07:00:31;;;;;;;3.60;3.30;;;;;;;;;;5017088;28;20058;-81
2024/03/28 07:02:57;;;;;;;3.53;3.22;;;;;;;;;;5018420;28;20053;-83
2024/03/28 07:05:24;;;;;;;2.80;2.70;;;;;;;;;;5020633;28;20057;-82
2024/03/28 07:07:51;;;;;;;2.60;2.40;;;;;;;;;;5004784;28;20053;-83
2024/03/28 07:10:17;;;;;;;4.00;2.83;;;;;;;;;;5003364;28;20505;-82
2024/03/28 07:12:43;;;;;;;2.80;2.60;;;;;;;;;;5019864;28;20045;-82
2024/03/28 07:15:09;;;;;;;3.10;2.90;;;;;;;;;;5012359;28;20060;-82
2024/03/28 07:17:36;;;;;;;2.72;2.53;;;;;;;;;;5023016;28;20405;-82
2024/03/28 07:20:03;;;;;;;3.00;2.80;;;;;;;;;;5007842;28;20061;-83
2024/03/28 07:22:29;;;;;;;2.53;2.42;;;;;;;;;;5010894;28;20500;-83
2024/03/28 07:24:56;;;;;;;3.10;2.90;;;;;;;;;;5003208;28;20061;-81
2024/03/28 07:27:23;;;;;;;2.70;2.50;;;;;;;;;;5002665;28;20057;-81
2024/03/28 07:29:49;;;;;;;2.67;2.55;;;;;;;;;;5003447;28;20050;-82
2024/03/28 07:32:15;;;;;;;2.22;1.98;;;;;;;;;;5017157;28;20523;-81
2024/03/28 07:34:42;;;;;;;3.95;2.13;;;;;;;;;;5015677;28;20409;-82
2024/03/28 07:37:08;;;;;;;2.78;2.55;;;;;;;;;;5015263;28;20069;-81
2024/03/28 07:39:34;;;;;;;2.00;1.90;;;;;;;;;;5001667;28;20064;-82
2024/03/28 07:42:00;;;;;;;1.98;1.88;;;;;;;;;;5020870;28;20424;-83
2024/03/28 07:44:27;;;;;;;2.05;1.63;;;;;;;;;;5002975;28;20068;-82
2024/03/28 07:46:53;;;;;;;2.30;2.10;;;;;;;;;;5023576;28;20057;-83
2024/03/28 07:49:19;;;;;;;2.72;1.70;;;;;;;;;;5007155;28;20050;-82
2024/03/28 07:51:46;;;;;;;2.95;1.73;;;;;;;;;;5003314;28;20060;-82
2024/03/28 07:54:12;;;;;;;1.70;1.60;;;;;;;;;;5018644;28;20069;-83
2024/03/28 07:56:39;;;;;;;1.60;1.50;;;;;;;;;;5026965;28;20064;-84
2024/03/28 07:59:07;;;;;;;2.38;1.38;;;;;;;;;;5003724;28;20459;-83
2024/03/28 08:01:35;;;;;;;2.65;1.50;;;;;;;;;;5006037;28;20050;-83
2024/03/28 08:04:01;;;;;;;1.23;1.23;;;;;;;;;;5007512;28;20439;-83
2024/03/28 08:06:28;;;;;;;3.90;1.60;;;;;;;;;;5011871;28;20057;-83
2024/03/28 08:08:54;;;;;;;1.23;1.20;;;;;;;;;;5006896;28;20053;-84
2024/03/28 08:11:21;;;;;;;1.70;1.60;;;;;;;;;;5014184;28;20049;-83
2024/03/28 08:13:47;;;;;;;1.40;1.40;;;;;;;;;;5009895;28;20046;-83
2024/03/28 08:16:13;;;;;;;1.70;1.60;;;;;;;;;;5017937;28;20422;-84
2024/03/28 08:18:40;;;;;;;1.73;1.63;;;;;;;;;;5001019;28;20065;-84
2024/03/28 08:21:07;;;;;;;1.50;1.30;;;;;;;;;;5024399;28;20057;-83
2024/03/28 08:23:33;;;;;;;1.20;1.20;;;;;;;;;;5010376;28;20060;-83
2024/03/28 08:25:59;;;;;;;1.27;1.27;;;;;;;;;;5026186;28;20263;-83
2024/03/28 08:28:25;;;;;;;1.05;1.05;;;;;;;;;;5001491;28;20069;-83
2024/03/28 08:30:52;;;;;;;1.58;1.27;;;;;;;;;;4997771;28;20058;-82
2024/03/28 08:33:19;;;;;;;0.90;0.90;;;;;;;;;;5004096;28;20468;-83
2024/03/28 08:35:46;;;;;;;2.13;1.25;;;;;;;;;;5002090;28;20057;-83
2024/03/28 08:38:12;;;;;;;1.50;1.40;;;;;;;;;;5017371;28;20062;-83
2024/03/28 08:40:38;;;;;;;2.03;1.05;;;;;;;;;;5025669;28;20154;-83
2024/03/28 08:43:05;;;;;;;1.00;1.00;;;;;;;;;;5009918;28;20050;-82
2024/03/28 08:45:32;;;;;;;1.25;1.08;;;;;;;;;;5027919;28;20099;-83
2024/03/28 08:47:59;;;;;;;1.15;1.15;;;;;;;;;;5006758;28;20208;-82
2024/03/28 08:50:26;;;;;;;1.02;1.00;;;;;;;;;;5010092;28;20061;-83
2024/03/28 08:52:54;;;;;;;0.90;0.90;;;;;;;;;;5009488;28;20254;-83
2024/03/28 08:55:21;;;;;;;1.25;1.20;;;;;;;;;;5025765;28;20042;-83
2024/03/28 08:57:49;;;;;;;0.93;0.90;;;;;;;;;;5022392;28;20049;-83
2024/03/28 09:00:19;;;;;;;2.38;1.42;;;;;;;;;;5013755;28;20111;-83
2024/03/28 09:02:45;;;;;;;0.98;0.98;;;;;;;;;;5025719;28;20053;-80
2024/03/28 09:05:11;;;;;;;1.45;1.35;;;;;;;;;;5004595;28;20072;-80
2024/03/28 09:07:38;;;;;;;1.85;1.00;;;;;;;;;;4996815;28;20100;-80
2024/03/28 09:10:05;;;;;;;1.58;1.00;;;;;;;;;;5009209;28;20076;-81
2024/03/28 09:12:41;;;;;;;0.75;0.73;;;;;;;;;;5003210;28;20501;-81
2024/03/28 09:15:08;;;;;;;1.00;1.00;;;;;;;;;;5010183;28;20054;-81
2024/03/28 09:17:38;;;;;;;2.38;0.70;;;;;;;;;;5019272;28;20068;-81
2024/03/28 09:20:05;;;;;;;1.10;0.80;;;;;;;;;;5011883;28;20057;-81
2024/03/28 09:22:33;;;;;;;1.02;0.75;;;;;;;;;;5004110;28;20061;-81
2024/03/28 09:25:03;;;;;;;0.50;0.50;;;;;;;;;;5022421;28;20054;-82
2024/03/28 09:27:29;;;;;;;0.93;0.80;;;;;;;;;;5006124;28;20049;-81
2024/03/28 09:29:56;;;;;;;0.90;0.80;;;;;;;;;;5011915;28;20046;-82
2024/03/28 09:32:23;;;;;;;0.77;0.77;;;;;;;;;;5007401;28;20046;-82
2024/03/28 09:34:49;;;;;;;1.38;0.90;;;;;;;;;;5008917;28;20421;-81
2024/03/28 09:37:16;;;;;;;1.27;1.00;;;;;;;;;;5010478;28;20054;-80
2024/03/28 09:39:45;;;;;;;2.05;1.10;;;;;;;;;;5005733;28;20428;-81
2024/03/28 09:42:12;;;;;;;0.93;0.93;;;;;;;;;;5021597;28;20053;-80
2024/03/28 09:44:39;;;;;;;2.80;1.23;;;;;;;;;;5004859;28;20060;-82
2024/03/28 09:47:05;;;;;;;1.20;1.10;;;;;;;;;;5015765;28;20042;-81
2024/03/28 09:49:34;;;;;;;0.98;0.98;;;;;;;;;;5001369;28;20102;-82
2024/03/28 09:52:03;;;;;;;1.05;1.05;;;;;;;;;;5000475;28;20402;-83
2024/03/28 09:54:34;;;;;;;1.00;1.00;;;;;;;;;;4995842;28;20058;-83
2024/03/28 09:57:01;;;;;;;1.00;1.00;;;;;;;;;;5002216;28;20050;-83
2024/03/28 09:59:28;;;;;;;1.25;1.15;;;;;;;;;;4998208;28;20104;-82
2024/03/28 10:01:57;;;;;;;0.93;0.93;;;;;;;;;;4998701;28;20104;-82
2024/03/28 10:04:25;;;;;;;4.38;1.23;;;;;;;;;;5014029;28;20064;-83
2024/03/28 10:06:56;;;;;;;2.00;1.35;;;;;;;;;;5003041;28;20046;-83
2024/03/28 10:09:22;;;;;;;0.93;0.93;;;;;;;;;;5000339;28;20053;-83
2024/03/28 10:11:49;;;;;;;1.00;1.00;;;;;;;;;;5002068;28;20053;-83
2024/03/28 10:14:16;;;;;;;2.35;1.10;;;;;;;;;;5000207;28;20053;-83
2024/03/28 10:16:43;;;;;;;2.08;0.90;;;;;;;;;;5015102;28;20054;-80
2024/03/28 10:19:09;;;;;;;2.40;1.23;;;;;;;;;;5000189;28;20475;-83
2024/03/28 10:21:36;;;;;;;2.28;0.90;;;;;;;;;;5009124;28;20068;-83
2024/03/28 10:24:04;;;;;;;1.38;1.00;;;;;;;;;;5018203;28;20057;-83
2024/03/28 10:26:34;;;;;;;1.92;1.00;;;;;;;;;;5011251;28;20058;-81
2024/03/28 10:29:00;;;;;;;2.33;1.10;;;;;;;;;;5002788;28;20105;-82
2024/03/28 10:31:27;;;;;;;3.25;1.08;;;;;;;;;;5015174;28;20061;-81
2024/03/28 10:33:53;;;;;;;0.60;0.60;;;;;;;;;;5001439;28;20495;-82
2024/03/28 10:36:24;;;;;;;0.80;0.80;;;;;;;;;;4999992;28;20058;-82
2024/03/28 10:39:01;;;;;;;0.93;0.82;;;;;;;;;;5000973;28;20053;-84
2024/03/28 10:41:29;;;;;;;3.17;0.85;;;;;;;;;;5000664;28;20108;-82
2024/03/28 10:43:57;;;;;;;0.85;0.60;;;;;;;;;;5000321;28;20046;-81
2024/03/28 10:46:26;;;;;;;12.10;1.65;;;;;;;;;;5010422;28;20046;-83
2024/03/28 10:48:53;;;;;;;0.93;0.90;;;;;;;;;;5008518;28;20058;-81
2024/03/28 10:51:23;;;;;;;1.30;0.93;;;;;;;;;;5018346;28;20057;-82
2024/03/28 10:53:58;;;;;;;1.00;1.00;;;;;;;;;;5008218;28;20104;-82
2024/03/28 10:56:25;;;;;;;0.90;0.90;;;;;;;;;;5008371;28;20546;-82
2024/03/28 10:58:55;;;;;;;1.00;1.00;;;;;;;;;;5000445;28;20058;-83
2024/03/28 11:01:22;;;;;;;2.03;1.38;;;;;;;;;;5009681;28;20420;-83
2024/03/28 11:03:48;;;;;;;2.40;0.90;;;;;;;;;;5012910;28;20061;-83
2024/03/28 11:06:15;;;;;;;1.00;1.00;;;;;;;;;;5011745;28;20054;-81
2024/03/28 11:08:42;;;;;;;0.95;0.95;;;;;;;;;;5013121;28;20076;-83
2024/03/28 11:11:08;;;;;;;1.45;1.00;;;;;;;;;;5012199;28;20108;-82
2024/03/28 11:13:35;;;;;;;0.90;0.90;;;;;;;;;;5027332;28;20111;-82
2024/03/28 11:16:04;;;;;;;1.63;1.08;;;;;;;;;;5019552;28;20058;-82
2024/03/28 11:18:32;;;;;;;1.23;1.10;;;;;;;;;;5019191;28;20050;-82
2024/03/28 11:21:01;;;;;;;0.80;0.80;;;;;;;;;;5001880;28;20054;-82
2024/03/28 11:23:27;;;;;;;0.60;0.60;;;;;;;;;;5026504;28;20398;-82
2024/03/28 11:26:03;;;;;;;1.20;1.10;;;;;;;;;;5001877;28;20057;-82
2024/03/28 11:28:30;;;;;;;1.20;0.40;;;;;;;;;;5000171;28;20084;-80
2024/03/28 11:30:56;;;;;;;0.30;0.30;;;;;;;;;;5001151;28;20061;-81
2024/03/28 11:33:39;;;;;;;1.85;0.50;;;;;;;;;;5001855;28;20062;-82
2024/03/28 11:36:06;;;;;;;1.03;0.50;;;;;;;;;;5025006;28;20054;-82
2024/03/28 11:38:33;;;;;;;0.50;0.50;;;;;;;;;;4999836;28;20054;-82
2024/03/28 11:40:59;;;;;;;0.85;0.60;;;;;;;;;;5001614;28;20061;-83
2024/03/28 11:43:26;;;;;;;0.30;0.30;;;;;;;;;;5001513;28;20057;-82
2024/03/28 11:45:53;;;;;;;1.60;0.43;;;;;;;;;;5017906;28;20053;-83
2024/03/28 11:48:20;;;;;;;0.20;0.20;;;;;;;;;;5009532;28;20056;-82
2024/03/28 11:50:47;;;;;;;0.20;0.20;;;;;;;;;;5025547;28;20054;-82
2024/03/28 11:53:13;;;;;;;0.20;0.20;;;;;;;;;;5007530;28;20065;-80
2024/03/28 11:55:42;;;;;;;0.45;0.45;;;;;;;;;;4999589;28;20061;-81
2024/03/28 11:58:18;;;;;;;0.35;0.30;;;;;;;;;;4999926;28;20061;-82
2024/03/28 12:00:45;;;;;;;0.50;0.50;;;;;;;;;;5020021;28;20415;-81
2024/03/28 12:03:11;;;;;;;1.70;0.30;;;;;;;;;;5010504;28;20065;-83
2024/03/28 12:05:38;;;;;;;0.40;0.40;;;;;;;;;;4999325;28;20112;-81
2024/03/28 12:08:05;;;;;;;0.40;0.40;;;;;;;;;;4998693;28;20515;-81
2024/03/28 12:10:32;;;;;;;0.90;0.32;;;;;;;;;;5006725;28;20415;-81
2024/03/28 12:13:00;;;;;;;1.05;0.30;;;;;;;;;;4998843;28;20061;-81
2024/03/28 12:15:26;;;;;;;1.75;0.38;;;;;;;;;;5023242;28;20104;-81
2024/03/28 12:17:56;;;;;;;0.40;0.40;;;;;;;;;;5000183;28;20054;-82
2024/03/28 12:20:22;;;;;;;0.43;0.20;;;;;;;;;;4998997;28;20065;-82
2024/03/28 12:22:53;;;;;;;1.45;0.30;;;;;;;;;;5024331;28;20054;-83
2024/03/28 12:25:20;;;;;;;1.77;0.30;;;;;;;;;;5007188;28;20046;-82
2024/03/28 12:27:59;;;;;;;1.70;0.40;;;;;;;;;;5018931;28;20049;-82
2024/03/28 12:30:26;;;;;;;0.90;0.40;;;;;;;;;;5016358;28;20535;-82
2024/03/28 12:32:59;;;;;;;0.20;0.20;;;;;;;;;;5025315;28;20053;-81
2024/03/28 12:35:30;;;;;;;2.15;0.65;;;;;;;;;;5017733;28;20050;-83
2024/03/28 12:37:56;;;;;;;0.47;0.30;;;;;;;;;;5003303;28;20516;-82
2024/03/28 12:40:24;;;;;;;0.40;0.40;;;;;;;;;;5018420;28;20053;-83
2024/03/28 12:42:52;;;;;;;4.28;0.50;;;;;;;;;;5002067;28;20046;-82
2024/03/28 12:45:23;;;;;;;0.52;0.52;;;;;;;;;;5016968;28;20059;-82
2024/03/28 12:47:53;;;;;;;0.38;0.38;;;;;;;;;;5000723;28;20049;-82
2024/03/28 12:50:24;;;;;;;2.83;0.40;;;;;;;;;;5000602;28;20054;-82
2024/03/28 12:52:51;;;;;;;1.02;0.40;;;;;;;;;;5001740;28;20054;-81
2024/03/28 12:55:18;;;;;;;1.30;0.40;;;;;;;;;;5016429;28;20046;-81
2024/03/28 12:57:45;;;;;;;0.73;0.50;;;;;;;;;;5017907;28;20058;-81
2024/03/28 13:00:12;;;;;;;0.30;0.30;;;;;;;;;;4999022;28;20061;-83
2024/03/28 13:02:39;;;;;;;0.45;0.45;;;;;;;;;;5023672;28;20046;-80
2024/03/28 13:05:05;;;;;;;1.65;0.50;;;;;;;;;;4998579;28;20058;-82
2024/03/28 13:07:32;;;;;;;0.70;0.38;;;;;;;;;;5024206;28;20076;-83
2024/03/28 13:09:58;;;;;;;0.52;0.40;;;;;;;;;;5024535;28;20054;-83
2024/03/28 13:12:25;;;;;;;3.35;0.55;;;;;;;;;;5026615;28;20058;-81
2024/03/28 13:14:52;;;;;;;4.70;0.50;;;;;;;;;;5010915;28;20050;-81
2024/03/28 13:17:18;;;;;;;0.38;0.38;;;;;;;;;;5002302;28;20054;-83
2024/03/28 13:19:45;;;;;;;1.60;0.40;;;;;;;;;;5017348;28;20054;-84
2024/03/28 13:22:12;;;;;;;2.70;0.40;;;;;;;;;;5006968;28;20535;-82
2024/03/28 13:24:38;;;;;;;1.33;0.40;;;;;;;;;;4999765;28;20057;-84
2024/03/28 13:27:04;;;;;;;1.63;0.50;;;;;;;;;;5005345;28;20056;-82
2024/03/28 13:29:31;;;;;;;4.05;0.38;;;;;;;;;;5024219;28;20045;-83
2024/03/28 13:31:58;;;;;;;0.40;0.30;;;;;;;;;;4998405;28;20508;-83
2024/03/28 13:34:24;;;;;;;2.50;0.40;;;;;;;;;;5000371;28;20058;-82
2024/03/28 13:36:53;;;;;;;0.50;0.50;;;;;;;;;;5018591;28;20054;-83
2024/03/28 13:39:20;;;;;;;0.43;0.43;;;;;;;;;;5009172;28;20054;-83
2024/03/28 13:41:50;;;;;;;4.85;0.80;;;;;;;;;;5001245;28;20057;-83
2024/03/28 13:44:17;;;;;;;0.30;0.30;;;;;;;;;;5008388;28;20471;-82
2024/03/28 13:46:44;;;;;;;0.93;0.50;;;;;;;;;;5001093;28;20519;-80
2024/03/28 13:49:25;;;;;;;0.82;0.28;;;;;;;;;;5006302;28;20052;-82
2024/03/28 13:51:51;;;;;;;1.05;0.30;;;;;;;;;;4994881;28;20046;-83
2024/03/28 13:54:19;;;;;;;1.20;0.35;;;;;;;;;;5010497;28;20467;-83
2024/03/28 13:56:45;;;;;;;0.95;0.57;;;;;;;;;;4998000;28;20056;-82
2024/03/28 13:59:11;;;;;;;0.80;0.30;;;;;;;;;;5021459;28;20061;-82
2024/03/28 14:01:38;;;;;;;0.88;0.50;;;;;;;;;;5011192;28;20050;-84
2024/03/28 14:04:06;;;;;;;1.25;0.30;;;;;;;;;;5010978;28;20058;-83
2024/03/28 14:06:33;;;;;;;0.40;0.20;;;;;;;;;;4998948;28;20052;-81
2024/03/28 14:08:59;;;;;;;0.65;0.40;;;;;;;;;;5009863;28;20056;-83
2024/03/28 14:11:26;;;;;;;0.40;0.30;;;;;;;;;;5001942;28;20046;-83
2024/03/28 14:13:53;;;;;;;1.08;0.20;;;;;;;;;;5001488;28;20058;-83
2024/03/28 14:16:19;;;;;;;1.05;0.30;;;;;;;;;;5016874;28;20061;-82
2024/03/28 14:18:45;;;;;;;0.50;0.13;;;;;;;;;;5017988;28;20058;-80
2024/03/28 14:21:12;;;;;;;0.45;0.28;;;;;;;;;;4999543;28;20058;-83
2024/03/28 14:23:39;;;;;;;1.30;0.30;;;;;;;;;;5007684;28;20073;-82
2024/03/28 14:26:05;;;;;;;0.20;0.20;;;;;;;;;;5023251;28;20050;-82
2024/03/28 14:28:32;;;;;;;2.15;0.35;;;;;;;;;;5008558;28;20424;-83
2024/03/28 14:30:59;;;;;;;0.30;0.30;;;;;;;;;;5015083;28;20056;-83
2024/03/28 14:33:25;;;;;;;0.70;0.45;;;;;;;;;;5015752;28;20412;-83
2024/03/28 14:36:01;;;;;;;4.05;1.00;;;;;;;;;;5016117;28;20053;-82
2024/03/28 14:38:27;;;;;;;2.63;0.80;;;;;;;;;;5001444;28;20062;-83
2024/03/28 14:40:53;;;;;;;8.55;0.65;;;;;;;;;;4999565;28;20149;-84
2024/03/28 14:43:19;;;;;;;0.38;0.30;;;;;;;;;;5000047;28;20062;-83
2024/03/28 14:45:46;;;;;;;0.80;0.30;;;;;;;;;;4998468;28;20057;-83
2024/03/28 14:48:12;;;;;;;0.30;0.22;;;;;;;;;;5006658;28;20479;-83